sensor_id;sensor_type;location;lat;lon;timestamp;temperature;humidity
40085;DHT22;25786;51.504;7.344;2023-08-08T00:01:28;15.20;80.20
40085;DHT22;25786;51.504;7.344;2023-08-08T00:03:54;15.20;80.40
40085;DHT22;25786;51.504;7.344;2023-08-08T00:06:22;15.30;80.00
40085;DHT22;25786;51.504;7.344;2023-08-08T00:09:03;15.30;79.80
40085;DHT22;25786;51.504;7.344;2023-08-08T00:12:06;15.30;79.50
40085;DHT22;25786;51.504;7.344;2023-08-08T00:14:33;15.30;79.50
40085;DHT22;25786;51.504;7.344;2023-08-08T00:17:23;15.30;79.50
40085;DHT22;25786;51.504;7.344;2023-08-08T00:19:52;15.30;79.30
40085;DHT22;25786;51.504;7.344;2023-08-08T00:22:23;15.30;79.10
40085;DHT22;25786;51.504;7.344;2023-08-08T00:24:54;15.30;79.30
40085;DHT22;25786;51.504;7.344;2023-08-08T00:27:22;15.30;78.80
40085;DHT22;25786;51.504;7.344;2023-08-08T00:29:59;15.30;78.70
40085;DHT22;25786;51.504;7.344;2023-08-08T00:32:25;15.30;78.60
40085;DHT22;25786;51.504;7.344;2023-08-08T00:34:51;15.30;78.50
40085;DHT22;25786;51.504;7.344;2023-08-08T00:37:19;15.30;78.30
40085;DHT22;25786;51.504;7.344;2023-08-08T00:39:50;15.30;78.40
40085;DHT22;25786;51.504;7.344;2023-08-08T00:42:21;15.30;78.20
40085;DHT22;25786;51.504;7.344;2023-08-08T00:44:49;15.50;77.90
40085;DHT22;25786;51.504;7.344;2023-08-08T00:47:15;15.50;77.80
40085;DHT22;25786;51.504;7.344;2023-08-08T00:49:40;15.50;77.30
40085;DHT22;25786;51.504;7.344;2023-08-08T00:52:13;15.40;77.50
40085;DHT22;25786;51.504;7.344;2023-08-08T00:54:39;15.40;77.90
40085;DHT22;25786;51.504;7.344;2023-08-08T00:57:04;15.30;77.70
40085;DHT22;25786;51.504;7.344;2023-08-08T00:59:33;15.30;77.70
40085;DHT22;25786;51.504;7.344;2023-08-08T01:02:09;15.30;77.70
40085;DHT22;25786;51.504;7.344;2023-08-08T01:04:35;15.30;77.40
40085;DHT22;25786;51.504;7.344;2023-08-08T01:09:55;15.30;77.50
40085;DHT22;25786;51.504;7.344;2023-08-08T01:12:21;15.20;77.60
40085;DHT22;25786;51.504;7.344;2023-08-08T01:14:47;15.10;77.80
40085;DHT22;25786;51.504;7.344;2023-08-08T01:17:12;15.10;78.20
40085;DHT22;25786;51.504;7.344;2023-08-08T01:19:39;15.10;77.90
40085;DHT22;25786;51.504;7.344;2023-08-08T01:22:05;15.10;77.70
40085;DHT22;25786;51.504;7.344;2023-08-08T01:24:32;15.20;77.70
40085;DHT22;25786;51.504;7.344;2023-08-08T01:27:00;15.10;78.00
40085;DHT22;25786;51.504;7.344;2023-08-08T01:29:26;15.10;78.10
40085;DHT22;25786;51.504;7.344;2023-08-08T01:31:52;15.20;77.60
40085;DHT22;25786;51.504;7.344;2023-08-08T01:34:17;15.20;77.30
40085;DHT22;25786;51.504;7.344;2023-08-08T01:36:48;15.20;77.20
40085;DHT22;25786;51.504;7.344;2023-08-08T01:39:17;15.30;77.30
40085;DHT22;25786;51.504;7.344;2023-08-08T01:41:43;15.30;76.30
40085;DHT22;25786;51.504;7.344;2023-08-08T01:44:10;15.30;76.00
40085;DHT22;25786;51.504;7.344;2023-08-08T01:46:35;15.30;75.90
40085;DHT22;25786;51.504;7.344;2023-08-08T01:49:01;15.30;76.20
40085;DHT22;25786;51.504;7.344;2023-08-08T01:51:27;15.30;76.20
40085;DHT22;25786;51.504;7.344;2023-08-08T01:53:52;15.30;76.20
40085;DHT22;25786;51.504;7.344;2023-08-08T01:56:18;15.30;76.20
40085;DHT22;25786;51.504;7.344;2023-08-08T01:58:43;15.20;76.80
40085;DHT22;25786;51.504;7.344;2023-08-08T02:01:09;15.10;76.90
40085;DHT22;25786;51.504;7.344;2023-08-08T02:03:34;15.10;76.70
40085;DHT22;25786;51.504;7.344;2023-08-08T02:06:00;15.10;76.70
40085;DHT22;25786;51.504;7.344;2023-08-08T02:08:25;15.10;77.30
40085;DHT22;25786;51.504;7.344;2023-08-08T02:10:51;15.00;77.10
40085;DHT22;25786;51.504;7.344;2023-08-08T02:13:16;15.00;77.10
40085;DHT22;25786;51.504;7.344;2023-08-08T02:15:44;15.00;77.40
40085;DHT22;25786;51.504;7.344;2023-08-08T02:18:10;15.00;77.40
40085;DHT22;25786;51.504;7.344;2023-08-08T02:20:36;15.00;77.60
40085;DHT22;25786;51.504;7.344;2023-08-08T02:23:02;14.90;77.90
40085;DHT22;25786;51.504;7.344;2023-08-08T02:25:28;15.00;77.50
40085;DHT22;25786;51.504;7.344;2023-08-08T02:27:56;15.00;77.60
40085;DHT22;25786;51.504;7.344;2023-08-08T02:30:22;14.90;77.80
40085;DHT22;25786;51.504;7.344;2023-08-08T02:32:47;15.00;77.80
40085;DHT22;25786;51.504;7.344;2023-08-08T02:35:15;15.00;77.50
40085;DHT22;25786;51.504;7.344;2023-08-08T02:37:41;15.00;77.70
40085;DHT22;25786;51.504;7.344;2023-08-08T02:40:06;15.00;77.60
40085;DHT22;25786;51.504;7.344;2023-08-08T02:42:33;15.00;78.00
40085;DHT22;25786;51.504;7.344;2023-08-08T02:45:01;15.00;77.40
40085;DHT22;25786;51.504;7.344;2023-08-08T02:47:29;15.00;77.50
40085;DHT22;25786;51.504;7.344;2023-08-08T02:49:55;15.00;77.30
40085;DHT22;25786;51.504;7.344;2023-08-08T02:52:23;15.00;77.40
40085;DHT22;25786;51.504;7.344;2023-08-08T02:54:49;15.00;77.80
40085;DHT22;25786;51.504;7.344;2023-08-08T02:57:20;15.00;78.10
40085;DHT22;25786;51.504;7.344;2023-08-08T03:02:35;14.90;78.00
40085;DHT22;25786;51.504;7.344;2023-08-08T03:05:01;14.90;78.20
40085;DHT22;25786;51.504;7.344;2023-08-08T03:07:37;14.90;78.20
40085;DHT22;25786;51.504;7.344;2023-08-08T03:10:05;14.90;78.90
40085;DHT22;25786;51.504;7.344;2023-08-08T03:12:31;14.90;78.20
40085;DHT22;25786;51.504;7.344;2023-08-08T03:15:02;14.90;78.90
40085;DHT22;25786;51.504;7.344;2023-08-08T03:17:36;14.80;78.60
40085;DHT22;25786;51.504;7.344;2023-08-08T03:22:50;14.90;78.70
40085;DHT22;25786;51.504;7.344;2023-08-08T03:25:15;14.90;78.80
40085;DHT22;25786;51.504;7.344;2023-08-08T03:30:48;14.80;79.50
40085;DHT22;25786;51.504;7.344;2023-08-08T03:33:22;14.90;79.80
40085;DHT22;25786;51.504;7.344;2023-08-08T03:35:56;14.80;79.70
40085;DHT22;25786;51.504;7.344;2023-08-08T03:38:21;14.80;79.50
40085;DHT22;25786;51.504;7.344;2023-08-08T03:40:59;14.80;79.90
40085;DHT22;25786;51.504;7.344;2023-08-08T03:43:29;14.60;80.30
40085;DHT22;25786;51.504;7.344;2023-08-08T03:45:58;14.70;80.00
40085;DHT22;25786;51.504;7.344;2023-08-08T03:48:26;14.60;80.80
40085;DHT22;25786;51.504;7.344;2023-08-08T03:50:59;14.60;80.60
40085;DHT22;25786;51.504;7.344;2023-08-08T03:53:46;14.60;80.80
40085;DHT22;25786;51.504;7.344;2023-08-08T03:56:11;14.70;81.30
40085;DHT22;25786;51.504;7.344;2023-08-08T03:58:39;14.60;82.10
40085;DHT22;25786;51.504;7.344;2023-08-08T04:01:05;14.60;83.00
40085;DHT22;25786;51.504;7.344;2023-08-08T04:03:30;14.60;83.50
40085;DHT22;25786;51.504;7.344;2023-08-08T04:05:56;14.60;84.00
40085;DHT22;25786;51.504;7.344;2023-08-08T04:08:21;14.50;84.50
40085;DHT22;25786;51.504;7.344;2023-08-08T04:10:47;14.40;85.00
40085;DHT22;25786;51.504;7.344;2023-08-08T04:13:12;14.40;85.40
40085;DHT22;25786;51.504;7.344;2023-08-08T04:15:38;14.30;85.80
40085;DHT22;25786;51.504;7.344;2023-08-08T04:18:04;14.20;86.00
40085;DHT22;25786;51.504;7.344;2023-08-08T04:20:31;14.20;86.30
40085;DHT22;25786;51.504;7.344;2023-08-08T04:22:57;14.20;86.70
40085;DHT22;25786;51.504;7.344;2023-08-08T04:25:22;14.20;86.40
40085;DHT22;25786;51.504;7.344;2023-08-08T04:27:48;14.30;86.40
40085;DHT22;25786;51.504;7.344;2023-08-08T04:30:14;14.30;86.60
40085;DHT22;25786;51.504;7.344;2023-08-08T04:32:40;14.30;86.60
40085;DHT22;25786;51.504;7.344;2023-08-08T04:35:05;14.30;86.50
40085;DHT22;25786;51.504;7.344;2023-08-08T04:37:31;14.30;86.40
40085;DHT22;25786;51.504;7.344;2023-08-08T04:39:56;14.30;86.50
40085;DHT22;25786;51.504;7.344;2023-08-08T04:42:22;14.30;86.40
40085;DHT22;25786;51.504;7.344;2023-08-08T04:44:47;14.30;86.30
40085;DHT22;25786;51.504;7.344;2023-08-08T04:47:13;14.30;86.40
40085;DHT22;25786;51.504;7.344;2023-08-08T04:49:38;14.30;86.80
40085;DHT22;25786;51.504;7.344;2023-08-08T04:52:04;14.30;86.30
40085;DHT22;25786;51.504;7.344;2023-08-08T04:54:32;14.30;86.40
40085;DHT22;25786;51.504;7.344;2023-08-08T04:57:00;14.40;86.40
40085;DHT22;25786;51.504;7.344;2023-08-08T04:59:33;14.40;86.50
40085;DHT22;25786;51.504;7.344;2023-08-08T05:01:58;14.40;86.60
40085;DHT22;25786;51.504;7.344;2023-08-08T05:04:24;14.50;86.70
40085;DHT22;25786;51.504;7.344;2023-08-08T05:06:49;14.40;86.60
40085;DHT22;25786;51.504;7.344;2023-08-08T05:12:02;14.40;86.40
40085;DHT22;25786;51.504;7.344;2023-08-08T05:14:28;14.30;86.80
40085;DHT22;25786;51.504;7.344;2023-08-08T05:16:53;14.50;86.70
40085;DHT22;25786;51.504;7.344;2023-08-08T05:19:19;14.50;86.60
40085;DHT22;25786;51.504;7.344;2023-08-08T05:21:44;14.50;86.80
40085;DHT22;25786;51.504;7.344;2023-08-08T05:24:10;14.50;86.90
40085;DHT22;25786;51.504;7.344;2023-08-08T05:26:35;14.50;86.60
40085;DHT22;25786;51.504;7.344;2023-08-08T05:29:01;14.50;86.70
40085;DHT22;25786;51.504;7.344;2023-08-08T05:31:26;14.60;86.40
40085;DHT22;25786;51.504;7.344;2023-08-08T05:33:59;14.50;86.60
40085;DHT22;25786;51.504;7.344;2023-08-08T05:36:25;14.60;86.60
40085;DHT22;25786;51.504;7.344;2023-08-08T05:38:50;14.60;86.70
40085;DHT22;25786;51.504;7.344;2023-08-08T05:41:15;14.60;86.60
40085;DHT22;25786;51.504;7.344;2023-08-08T05:43:41;14.50;87.00
40085;DHT22;25786;51.504;7.344;2023-08-08T05:46:07;14.60;87.00
40085;DHT22;25786;51.504;7.344;2023-08-08T05:48:33;14.50;86.70
40085;DHT22;25786;51.504;7.344;2023-08-08T05:50:58;14.60;86.70
40085;DHT22;25786;51.504;7.344;2023-08-08T05:53:25;14.60;86.70
40085;DHT22;25786;51.504;7.344;2023-08-08T05:55:52;14.60;86.50
40085;DHT22;25786;51.504;7.344;2023-08-08T05:58:17;14.60;86.80
40085;DHT22;25786;51.504;7.344;2023-08-08T06:00:43;14.60;86.80
40085;DHT22;25786;51.504;7.344;2023-08-08T06:03:08;14.60;86.70
40085;DHT22;25786;51.504;7.344;2023-08-08T06:05:34;14.70;86.50
40085;DHT22;25786;51.504;7.344;2023-08-08T06:07:59;14.70;86.70
40085;DHT22;25786;51.504;7.344;2023-08-08T06:10:28;14.70;86.70
40085;DHT22;25786;51.504;7.344;2023-08-08T06:12:53;14.80;86.60
40085;DHT22;25786;51.504;7.344;2023-08-08T06:15:28;14.80;86.60
40085;DHT22;25786;51.504;7.344;2023-08-08T06:18:01;14.80;86.50
40085;DHT22;25786;51.504;7.344;2023-08-08T06:20:34;14.80;86.20
40085;DHT22;25786;51.504;7.344;2023-08-08T06:23:09;14.80;86.40
40085;DHT22;25786;51.504;7.344;2023-08-08T06:25:37;14.80;86.60
40085;DHT22;25786;51.504;7.344;2023-08-08T06:28:04;14.80;86.70
40085;DHT22;25786;51.504;7.344;2023-08-08T06:30:32;14.80;86.40
40085;DHT22;25786;51.504;7.344;2023-08-08T06:32:58;14.80;86.50
40085;DHT22;25786;51.504;7.344;2023-08-08T06:35:31;14.90;86.30
40085;DHT22;25786;51.504;7.344;2023-08-08T06:37:56;14.90;86.40
40085;DHT22;25786;51.504;7.344;2023-08-08T06:40:22;14.80;86.70
40085;DHT22;25786;51.504;7.344;2023-08-08T06:42:49;14.90;86.60
40085;DHT22;25786;51.504;7.344;2023-08-08T06:45:21;15.00;86.10
40085;DHT22;25786;51.504;7.344;2023-08-08T06:47:46;15.00;86.20
40085;DHT22;25786;51.504;7.344;2023-08-08T06:50:12;15.00;85.60
40085;DHT22;25786;51.504;7.344;2023-08-08T06:52:40;15.10;86.00
40085;DHT22;25786;51.504;7.344;2023-08-08T06:55:09;15.10;85.80
40085;DHT22;25786;51.504;7.344;2023-08-08T06:57:34;15.00;85.90
40085;DHT22;25786;51.504;7.344;2023-08-08T07:00:00;15.10;85.70
40085;DHT22;25786;51.504;7.344;2023-08-08T07:02:26;15.10;85.70
40085;DHT22;25786;51.504;7.344;2023-08-08T07:04:57;15.20;85.90
40085;DHT22;25786;51.504;7.344;2023-08-08T07:07:34;15.20;85.40
40085;DHT22;25786;51.504;7.344;2023-08-08T07:10:00;15.30;85.70
40085;DHT22;25786;51.504;7.344;2023-08-08T07:12:26;15.40;85.00
40085;DHT22;25786;51.504;7.344;2023-08-08T07:15:12;15.50;85.20
40085;DHT22;25786;51.504;7.344;2023-08-08T07:17:52;15.50;84.90
40085;DHT22;25786;51.504;7.344;2023-08-08T07:20:42;15.50;84.60
40085;DHT22;25786;51.504;7.344;2023-08-08T07:23:22;15.60;84.30
40085;DHT22;25786;51.504;7.344;2023-08-08T07:25:48;15.80;84.10
40085;DHT22;25786;51.504;7.344;2023-08-08T07:28:16;16.00;83.10
40085;DHT22;25786;51.504;7.344;2023-08-08T07:30:53;16.00;82.50
40085;DHT22;25786;51.504;7.344;2023-08-08T07:33:18;16.00;82.40
40085;DHT22;25786;51.504;7.344;2023-08-08T07:35:44;16.10;82.50
40085;DHT22;25786;51.504;7.344;2023-08-08T07:38:24;16.20;82.40
40085;DHT22;25786;51.504;7.344;2023-08-08T07:40:50;16.20;82.70
40085;DHT22;25786;51.504;7.344;2023-08-08T07:43:21;16.20;81.60
40085;DHT22;25786;51.504;7.344;2023-08-08T07:48:55;16.20;81.70
40085;DHT22;25786;51.504;7.344;2023-08-08T07:51:24;16.30;81.90
40085;DHT22;25786;51.504;7.344;2023-08-08T07:53:53;16.10;82.00
40085;DHT22;25786;51.504;7.344;2023-08-08T07:56:21;16.20;81.60
40085;DHT22;25786;51.504;7.344;2023-08-08T07:58:47;16.20;81.90
40085;DHT22;25786;51.504;7.344;2023-08-08T08:01:15;16.40;81.70
40085;DHT22;25786;51.504;7.344;2023-08-08T08:03:40;16.40;80.90
40085;DHT22;25786;51.504;7.344;2023-08-08T08:06:07;16.50;80.90
40085;DHT22;25786;51.504;7.344;2023-08-08T08:08:32;16.50;80.50
40085;DHT22;25786;51.504;7.344;2023-08-08T08:10:58;16.50;80.70
40085;DHT22;25786;51.504;7.344;2023-08-08T08:13:23;16.60;80.40
40085;DHT22;25786;51.504;7.344;2023-08-08T08:15:49;16.60;80.20
40085;DHT22;25786;51.504;7.344;2023-08-08T08:18:14;16.70;79.50
40085;DHT22;25786;51.504;7.344;2023-08-08T08:20:42;16.80;78.90
40085;DHT22;25786;51.504;7.344;2023-08-08T08:23:08;16.80;79.00
40085;DHT22;25786;51.504;7.344;2023-08-08T08:25:33;17.00;78.00
40085;DHT22;25786;51.504;7.344;2023-08-08T08:27:59;17.10;77.20
40085;DHT22;25786;51.504;7.344;2023-08-08T08:30:24;17.10;77.00
40085;DHT22;25786;51.504;7.344;2023-08-08T08:32:52;17.10;77.40
40085;DHT22;25786;51.504;7.344;2023-08-08T08:35:17;17.20;76.70
40085;DHT22;25786;51.504;7.344;2023-08-08T08:37:43;17.20;76.00
40085;DHT22;25786;51.504;7.344;2023-08-08T08:40:09;17.30;76.50
40085;DHT22;25786;51.504;7.344;2023-08-08T08:42:34;17.30;76.40
40085;DHT22;25786;51.504;7.344;2023-08-08T08:45:01;17.50;75.30
40085;DHT22;25786;51.504;7.344;2023-08-08T08:47:26;17.60;76.10
40085;DHT22;25786;51.504;7.344;2023-08-08T08:49:55;17.80;75.10
40085;DHT22;25786;51.504;7.344;2023-08-08T08:52:20;18.00;75.10
40085;DHT22;25786;51.504;7.344;2023-08-08T08:54:46;18.00;74.50
40085;DHT22;25786;51.504;7.344;2023-08-08T08:57:11;18.10;74.00
40085;DHT22;25786;51.504;7.344;2023-08-08T08:59:37;18.20;73.70
40085;DHT22;25786;51.504;7.344;2023-08-08T09:02:02;18.40;72.90
40085;DHT22;25786;51.504;7.344;2023-08-08T09:04:28;18.50;71.50
40085;DHT22;25786;51.504;7.344;2023-08-08T09:06:54;18.50;71.50
40085;DHT22;25786;51.504;7.344;2023-08-08T09:09:20;18.60;71.00
40085;DHT22;25786;51.504;7.344;2023-08-08T09:11:47;18.80;71.30
40085;DHT22;25786;51.504;7.344;2023-08-08T09:14:22;18.60;69.50
40085;DHT22;25786;51.504;7.344;2023-08-08T09:16:48;18.50;70.20
40085;DHT22;25786;51.504;7.344;2023-08-08T09:19:15;18.30;69.30
40085;DHT22;25786;51.504;7.344;2023-08-08T09:21:40;18.30;69.40
40085;DHT22;25786;51.504;7.344;2023-08-08T09:24:06;18.10;70.30
40085;DHT22;25786;51.504;7.344;2023-08-08T09:26:32;18.20;70.80
40085;DHT22;25786;51.504;7.344;2023-08-08T09:28:58;18.20;72.00
40085;DHT22;25786;51.504;7.344;2023-08-08T09:31:26;18.30;69.40
40085;DHT22;25786;51.504;7.344;2023-08-08T09:33:58;18.30;69.10
40085;DHT22;25786;51.504;7.344;2023-08-08T09:36:24;18.40;70.10
40085;DHT22;25786;51.504;7.344;2023-08-08T09:38:51;18.50;68.60
40085;DHT22;25786;51.504;7.344;2023-08-08T09:41:16;18.50;69.00
40085;DHT22;25786;51.504;7.344;2023-08-08T09:43:44;18.60;69.10
40085;DHT22;25786;51.504;7.344;2023-08-08T09:46:10;18.50;69.20
40085;DHT22;25786;51.504;7.344;2023-08-08T09:48:35;18.30;69.40
40085;DHT22;25786;51.504;7.344;2023-08-08T09:51:02;18.20;69.30
40085;DHT22;25786;51.504;7.344;2023-08-08T09:53:29;18.30;69.30
40085;DHT22;25786;51.504;7.344;2023-08-08T09:55:55;18.30;69.60
40085;DHT22;25786;51.504;7.344;2023-08-08T09:58:21;18.40;69.60
40085;DHT22;25786;51.504;7.344;2023-08-08T10:00:50;18.50;68.20
40085;DHT22;25786;51.504;7.344;2023-08-08T10:03:16;18.70;68.20
40085;DHT22;25786;51.504;7.344;2023-08-08T10:05:42;18.90;65.40
40085;DHT22;25786;51.504;7.344;2023-08-08T10:08:08;19.00;66.80
40085;DHT22;25786;51.504;7.344;2023-08-08T10:10:33;19.20;65.90
40085;DHT22;25786;51.504;7.344;2023-08-08T10:12:59;19.40;65.10
40085;DHT22;25786;51.504;7.344;2023-08-08T10:15:25;19.50;64.10
40085;DHT22;25786;51.504;7.344;2023-08-08T10:17:53;19.50;66.20
40085;DHT22;25786;51.504;7.344;2023-08-08T10:20:19;19.50;66.40
40085;DHT22;25786;51.504;7.344;2023-08-08T10:22:45;19.30;66.60
40085;DHT22;25786;51.504;7.344;2023-08-08T10:25:18;19.00;66.60
40085;DHT22;25786;51.504;7.344;2023-08-08T10:27:44;18.70;66.60
40085;DHT22;25786;51.504;7.344;2023-08-08T10:30:10;18.50;68.00
40085;DHT22;25786;51.504;7.344;2023-08-08T10:32:47;18.30;68.50
40085;DHT22;25786;51.504;7.344;2023-08-08T10:35:15;18.20;69.00
40085;DHT22;25786;51.504;7.344;2023-08-08T10:37:51;18.10;68.30
40085;DHT22;25786;51.504;7.344;2023-08-08T10:40:18;18.10;68.80
40085;DHT22;25786;51.504;7.344;2023-08-08T10:42:44;18.10;68.60
40085;DHT22;25786;51.504;7.344;2023-08-08T10:45:11;18.00;68.80
40085;DHT22;25786;51.504;7.344;2023-08-08T10:47:40;18.10;69.10
40085;DHT22;25786;51.504;7.344;2023-08-08T10:55:20;18.00;67.80
40085;DHT22;25786;51.504;7.344;2023-08-08T10:58:02;18.00;68.00
40085;DHT22;25786;51.504;7.344;2023-08-08T11:00:29;17.80;68.10
40085;DHT22;25786;51.504;7.344;2023-08-08T11:02:55;17.70;68.30
40085;DHT22;25786;51.504;7.344;2023-08-08T11:05:22;17.60;68.60
40085;DHT22;25786;51.504;7.344;2023-08-08T11:07:48;17.60;68.50
40085;DHT22;25786;51.504;7.344;2023-08-08T11:10:14;17.50;68.80
40085;DHT22;25786;51.504;7.344;2023-08-08T11:12:39;17.50;70.30
40085;DHT22;25786;51.504;7.344;2023-08-08T11:15:05;17.50;72.30
40085;DHT22;25786;51.504;7.344;2023-08-08T11:17:31;17.30;74.00
40085;DHT22;25786;51.504;7.344;2023-08-08T11:19:57;17.30;73.70
40085;DHT22;25786;51.504;7.344;2023-08-08T11:22:22;17.20;74.60
40085;DHT22;25786;51.504;7.344;2023-08-08T11:24:51;17.10;74.60
40085;DHT22;25786;51.504;7.344;2023-08-08T11:27:17;17.10;74.40
40085;DHT22;25786;51.504;7.344;2023-08-08T11:29:49;17.10;74.80
40085;DHT22;25786;51.504;7.344;2023-08-08T11:32:14;17.10;75.60
40085;DHT22;25786;51.504;7.344;2023-08-08T11:34:40;17.40;73.60
40085;DHT22;25786;51.504;7.344;2023-08-08T11:37:05;17.60;71.30
40085;DHT22;25786;51.504;7.344;2023-08-08T11:39:31;18.00;71.30
40085;DHT22;25786;51.504;7.344;2023-08-08T11:41:56;18.10;69.30
40085;DHT22;25786;51.504;7.344;2023-08-08T11:44:22;18.10;70.00
40085;DHT22;25786;51.504;7.344;2023-08-08T11:46:47;18.10;68.60
40085;DHT22;25786;51.504;7.344;2023-08-08T11:49:14;18.10;68.50
40085;DHT22;25786;51.504;7.344;2023-08-08T11:51:42;18.20;69.10
40085;DHT22;25786;51.504;7.344;2023-08-08T11:54:07;18.30;68.40
40085;DHT22;25786;51.504;7.344;2023-08-08T11:56:34;18.50;67.20
40085;DHT22;25786;51.504;7.344;2023-08-08T11:58:59;18.60;66.90
40085;DHT22;25786;51.504;7.344;2023-08-08T12:01:25;18.70;66.60
40085;DHT22;25786;51.504;7.344;2023-08-08T12:03:51;18.90;65.60
40085;DHT22;25786;51.504;7.344;2023-08-08T12:06:17;18.90;65.90
40085;DHT22;25786;51.504;7.344;2023-08-08T12:08:43;19.00;66.10
40085;DHT22;25786;51.504;7.344;2023-08-08T12:11:09;19.00;64.00
40085;DHT22;25786;51.504;7.344;2023-08-08T12:13:36;19.20;65.10
40085;DHT22;25786;51.504;7.344;2023-08-08T12:16:03;19.40;64.80
40085;DHT22;25786;51.504;7.344;2023-08-08T12:18:29;19.60;64.50
40085;DHT22;25786;51.504;7.344;2023-08-08T12:20:55;19.80;64.50
40085;DHT22;25786;51.504;7.344;2023-08-08T12:23:21;20.00;64.70
40085;DHT22;25786;51.504;7.344;2023-08-08T12:25:46;20.10;63.50
40085;DHT22;25786;51.504;7.344;2023-08-08T12:28:11;20.00;64.40
40085;DHT22;25786;51.504;7.344;2023-08-08T12:30:37;19.90;63.30
40085;DHT22;25786;51.504;7.344;2023-08-08T12:33:05;19.70;63.80
40085;DHT22;25786;51.504;7.344;2023-08-08T12:35:33;19.80;63.20
40085;DHT22;25786;51.504;7.344;2023-08-08T12:37:58;19.80;61.10
40085;DHT22;25786;51.504;7.344;2023-08-08T12:40:27;19.90;61.40
40085;DHT22;25786;51.504;7.344;2023-08-08T12:42:53;20.00;61.30
40085;DHT22;25786;51.504;7.344;2023-08-08T12:45:28;20.10;62.10
40085;DHT22;25786;51.504;7.344;2023-08-08T12:48:00;20.10;60.90
40085;DHT22;25786;51.504;7.344;2023-08-08T12:50:27;20.20;60.20
40085;DHT22;25786;51.504;7.344;2023-08-08T12:52:53;20.20;60.90
40085;DHT22;25786;51.504;7.344;2023-08-08T13:00:58;20.30;59.50
40085;DHT22;25786;51.504;7.344;2023-08-08T13:03:29;20.50;59.50
40085;DHT22;25786;51.504;7.344;2023-08-08T13:06:04;20.50;60.60
40085;DHT22;25786;51.504;7.344;2023-08-08T13:09:14;20.30;60.30
40085;DHT22;25786;51.504;7.344;2023-08-08T13:12:05;20.10;62.40
40085;DHT22;25786;51.504;7.344;2023-08-08T13:14:38;20.00;63.00
40085;DHT22;25786;51.504;7.344;2023-08-08T13:17:04;19.80;62.60
40085;DHT22;25786;51.504;7.344;2023-08-08T13:19:29;19.70;63.80
40085;DHT22;25786;51.504;7.344;2023-08-08T13:21:55;19.50;65.70
40085;DHT22;25786;51.504;7.344;2023-08-08T13:24:20;19.50;66.30
40085;DHT22;25786;51.504;7.344;2023-08-08T13:26:48;19.40;66.80
40085;DHT22;25786;51.504;7.344;2023-08-08T13:29:14;19.40;66.90
40085;DHT22;25786;51.504;7.344;2023-08-08T13:31:39;19.40;66.80
40085;DHT22;25786;51.504;7.344;2023-08-08T13:34:05;19.20;66.20
40085;DHT22;25786;51.504;7.344;2023-08-08T13:36:30;19.00;66.60
40085;DHT22;25786;51.504;7.344;2023-08-08T13:38:56;19.00;67.60
40085;DHT22;25786;51.504;7.344;2023-08-08T13:41:21;19.00;67.70
40085;DHT22;25786;51.504;7.344;2023-08-08T13:43:47;19.00;67.40
40085;DHT22;25786;51.504;7.344;2023-08-08T13:46:15;19.10;66.70
40085;DHT22;25786;51.504;7.344;2023-08-08T13:48:43;19.00;66.50
40085;DHT22;25786;51.504;7.344;2023-08-08T13:51:12;19.00;66.40
40085;DHT22;25786;51.504;7.344;2023-08-08T13:53:37;19.20;66.40
40085;DHT22;25786;51.504;7.344;2023-08-08T13:56:03;19.30;65.50
40085;DHT22;25786;51.504;7.344;2023-08-08T13:58:28;19.40;64.00
40085;DHT22;25786;51.504;7.344;2023-08-08T14:00:56;19.50;63.50
40085;DHT22;25786;51.504;7.344;2023-08-08T14:03:25;19.60;62.80
40085;DHT22;25786;51.504;7.344;2023-08-08T14:05:51;19.70;61.20
40085;DHT22;25786;51.504;7.344;2023-08-08T14:08:19;19.80;61.50
40085;DHT22;25786;51.504;7.344;2023-08-08T14:10:45;19.80;60.90
40085;DHT22;25786;51.504;7.344;2023-08-08T14:13:34;19.70;59.90
40085;DHT22;25786;51.504;7.344;2023-08-08T14:16:14;19.70;61.00
40085;DHT22;25786;51.504;7.344;2023-08-08T14:21:37;19.40;61.30
40085;DHT22;25786;51.504;7.344;2023-08-08T14:24:03;19.50;60.80
40085;DHT22;25786;51.504;7.344;2023-08-08T14:26:35;19.60;61.80
40085;DHT22;25786;51.504;7.344;2023-08-08T14:29:23;19.60;62.00
40085;DHT22;25786;51.504;7.344;2023-08-08T14:34:46;19.50;60.20
40085;DHT22;25786;51.504;7.344;2023-08-08T14:37:18;19.30;61.30
40085;DHT22;25786;51.504;7.344;2023-08-08T14:39:43;19.30;60.90
40085;DHT22;25786;51.504;7.344;2023-08-08T14:42:09;19.30;61.20
40085;DHT22;25786;51.504;7.344;2023-08-08T14:44:34;19.40;61.70
40085;DHT22;25786;51.504;7.344;2023-08-08T14:47:03;19.60;60.60
40085;DHT22;25786;51.504;7.344;2023-08-08T14:49:28;19.80;60.20
40085;DHT22;25786;51.504;7.344;2023-08-08T14:51:53;19.90;59.70
40085;DHT22;25786;51.504;7.344;2023-08-08T14:54:19;19.90;59.40
40085;DHT22;25786;51.504;7.344;2023-08-08T14:56:44;19.80;60.70
40085;DHT22;25786;51.504;7.344;2023-08-08T14:59:10;19.60;60.80
40085;DHT22;25786;51.504;7.344;2023-08-08T15:01:35;19.60;60.40
40085;DHT22;25786;51.504;7.344;2023-08-08T15:04:01;19.60;60.30
40085;DHT22;25786;51.504;7.344;2023-08-08T15:06:27;19.50;61.50
40085;DHT22;25786;51.504;7.344;2023-08-08T15:08:53;19.50;61.30
40085;DHT22;25786;51.504;7.344;2023-08-08T15:11:18;19.60;61.70
40085;DHT22;25786;51.504;7.344;2023-08-08T15:13:43;19.70;61.40
40085;DHT22;25786;51.504;7.344;2023-08-08T15:16:09;19.90;59.10
40085;DHT22;25786;51.504;7.344;2023-08-08T15:18:35;20.10;58.70
40085;DHT22;25786;51.504;7.344;2023-08-08T15:21:00;20.10;57.30
40085;DHT22;25786;51.504;7.344;2023-08-08T15:23:26;20.10;57.30
40085;DHT22;25786;51.504;7.344;2023-08-08T15:25:51;20.00;58.40
40085;DHT22;25786;51.504;7.344;2023-08-08T15:28:17;20.10;58.50
40085;DHT22;25786;51.504;7.344;2023-08-08T15:30:42;20.30;57.50
40085;DHT22;25786;51.504;7.344;2023-08-08T15:33:07;20.40;56.70
40085;DHT22;25786;51.504;7.344;2023-08-08T15:35:33;20.50;57.60
40085;DHT22;25786;51.504;7.344;2023-08-08T15:37:58;20.40;57.10
40085;DHT22;25786;51.504;7.344;2023-08-08T15:40:24;20.50;55.90
40085;DHT22;25786;51.504;7.344;2023-08-08T15:42:50;20.50;55.40
40085;DHT22;25786;51.504;7.344;2023-08-08T15:45:15;20.50;55.10
40085;DHT22;25786;51.504;7.344;2023-08-08T15:47:41;20.40;55.10
40085;DHT22;25786;51.504;7.344;2023-08-08T15:50:07;20.40;55.10
40085;DHT22;25786;51.504;7.344;2023-08-08T15:52:32;20.30;54.80
40085;DHT22;25786;51.504;7.344;2023-08-08T15:54:58;20.30;55.90
40085;DHT22;25786;51.504;7.344;2023-08-08T15:57:23;20.20;55.20
40085;DHT22;25786;51.504;7.344;2023-08-08T15:59:49;20.10;54.60
40085;DHT22;25786;51.504;7.344;2023-08-08T16:02:14;20.00;54.80
40085;DHT22;25786;51.504;7.344;2023-08-08T16:04:40;20.20;55.20
40085;DHT22;25786;51.504;7.344;2023-08-08T16:07:05;20.20;54.30